sensor_id;sensor_type;location;lat;lon;timestamp;P1;durP1;ratioP1;P2;durP2;ratioP2
70132;SDS011;57495;49.922;7.966;2023-03-03T00:00:04;11.88;;;4.35;;
70132;SDS011;57495;49.922;7.966;2023-03-03T00:02:07;9.57;;;4.43;;
70132;SDS011;57495;49.922;7.966;2023-03-03T00:04:10;9.65;;;4.43;;
70132;SDS011;57495;49.922;7.966;2023-03-03T00:06:12;8.48;;;3.97;;
70132;SDS011;57495;49.922;7.966;2023-03-03T00:08:14;9.82;;;3.97;;
70132;SDS011;57495;49.922;7.966;2023-03-03T00:10:16;10.02;;;4.25;;
70132;SDS011;57495;49.922;7.966;2023-03-03T00:12:20;11.68;;;4.90;;
70132;SDS011;57495;49.922;7.966;2023-03-03T00:14:24;9.30;;;4.68;;
70132;SDS011;57495;49.922;7.966;2023-03-03T00:16:30;9.85;;;4.20;;
70132;SDS011;57495;49.922;7.966;2023-03-03T00:18:36;11.27;;;4.20;;
70132;SDS011;57495;49.922;7.966;2023-03-03T00:20:45;9.35;;;4.55;;
70132;SDS011;57495;49.922;7.966;2023-03-03T00:22:48;10.23;;;4.75;;
70132;SDS011;57495;49.922;7.966;2023-03-03T00:24:50;11.32;;;4.55;;
70132;SDS011;57495;49.922;7.966;2023-03-03T00:26:52;10.43;;;5.35;;
70132;SDS011;57495;49.922;7.966;2023-03-03T00:28:55;9.20;;;4.50;;
70132;SDS011;57495;49.922;7.966;2023-03-03T00:30:57;10.18;;;4.18;;
70132;SDS011;57495;49.922;7.966;2023-03-03T00:33:00;9.82;;;4.57;;
70132;SDS011;57495;49.922;7.966;2023-03-03T00:35:15;9.43;;;4.07;;
70132;SDS011;57495;49.922;7.966;2023-03-03T00:37:26;9.32;;;4.13;;
70132;SDS011;57495;49.922;7.966;2023-03-03T00:39:30;11.15;;;4.70;;
70132;SDS011;57495;49.922;7.966;2023-03-03T00:41:33;9.75;;;4.05;;
70132;SDS011;57495;49.922;7.966;2023-03-03T00:43:36;10.15;;;3.65;;
70132;SDS011;57495;49.922;7.966;2023-03-03T00:45:39;14.43;;;4.95;;
70132;SDS011;57495;49.922;7.966;2023-03-03T00:47:45;12.20;;;5.18;;
70132;SDS011;57495;49.922;7.966;2023-03-03T00:49:46;12.40;;;5.32;;
70132;SDS011;57495;49.922;7.966;2023-03-03T00:51:48;11.90;;;5.07;;
70132;SDS011;57495;49.922;7.966;2023-03-03T00:53:51;11.32;;;4.65;;
70132;SDS011;57495;49.922;7.966;2023-03-03T00:55:52;12.65;;;5.00;;
70132;SDS011;57495;49.922;7.966;2023-03-03T00:57:54;12.50;;;4.85;;
70132;SDS011;57495;49.922;7.966;2023-03-03T00:59:54;10.43;;;4.30;;
70132;SDS011;57495;49.922;7.966;2023-03-03T01:01:56;11.05;;;5.00;;
70132;SDS011;57495;49.922;7.966;2023-03-03T01:03:57;10.88;;;4.65;;
70132;SDS011;57495;49.922;7.966;2023-03-03T01:05:58;10.25;;;4.20;;
70132;SDS011;57495;49.922;7.966;2023-03-03T01:08:00;10.00;;;4.57;;
70132;SDS011;57495;49.922;7.966;2023-03-03T01:10:03;10.63;;;4.40;;
70132;SDS011;57495;49.922;7.966;2023-03-03T01:12:05;10.75;;;4.28;;
70132;SDS011;57495;49.922;7.966;2023-03-03T01:14:07;9.95;;;4.13;;
70132;SDS011;57495;49.922;7.966;2023-03-03T01:16:08;10.95;;;5.05;;
70132;SDS011;57495;49.922;7.966;2023-03-03T01:18:10;11.63;;;4.90;;
70132;SDS011;57495;49.922;7.966;2023-03-03T01:20:13;11.90;;;4.93;;
70132;SDS011;57495;49.922;7.966;2023-03-03T01:22:15;10.57;;;4.53;;
70132;SDS011;57495;49.922;7.966;2023-03-03T01:24:16;11.02;;;4.63;;
70132;SDS011;57495;49.922;7.966;2023-03-03T01:26:19;13.27;;;5.20;;
70132;SDS011;57495;49.922;7.966;2023-03-03T01:28:21;11.33;;;4.40;;
70132;SDS011;57495;49.922;7.966;2023-03-03T01:30:23;11.75;;;4.15;;
70132;SDS011;57495;49.922;7.966;2023-03-03T01:32:25;12.80;;;4.72;;
70132;SDS011;57495;49.922;7.966;2023-03-03T01:34:28;9.77;;;5.00;;
70132;SDS011;57495;49.922;7.966;2023-03-03T01:36:29;9.80;;;4.32;;
70132;SDS011;57495;49.922;7.966;2023-03-03T01:38:30;9.10;;;4.30;;
70132;SDS011;57495;49.922;7.966;2023-03-03T01:40:35;10.95;;;4.95;;
70132;SDS011;57495;49.922;7.966;2023-03-03T01:42:38;9.90;;;4.72;;
70132;SDS011;57495;49.922;7.966;2023-03-03T01:44:39;10.88;;;4.50;;
70132;SDS011;57495;49.922;7.966;2023-03-03T01:46:43;10.27;;;4.55;;
70132;SDS011;57495;49.922;7.966;2023-03-03T01:48:52;9.13;;;4.07;;
70132;SDS011;57495;49.922;7.966;2023-03-03T01:50:56;10.27;;;4.18;;
70132;SDS011;57495;49.922;7.966;2023-03-03T01:53:02;10.43;;;4.35;;
70132;SDS011;57495;49.922;7.966;2023-03-03T01:55:07;13.80;;;4.32;;
70132;SDS011;57495;49.922;7.966;2023-03-03T01:57:13;9.82;;;4.63;;
70132;SDS011;57495;49.922;7.966;2023-03-03T01:59:21;10.40;;;4.87;;
70132;SDS011;57495;49.922;7.966;2023-03-03T02:01:26;12.75;;;5.10;;
70132;SDS011;57495;49.922;7.966;2023-03-03T02:03:29;11.90;;;5.47;;
70132;SDS011;57495;49.922;7.966;2023-03-03T02:05:31;12.00;;;5.00;;
70132;SDS011;57495;49.922;7.966;2023-03-03T02:07:33;9.90;;;4.45;;
70132;SDS011;57495;49.922;7.966;2023-03-03T02:09:38;9.07;;;4.00;;
70132;SDS011;57495;49.922;7.966;2023-03-03T02:11:48;9.32;;;4.22;;
70132;SDS011;57495;49.922;7.966;2023-03-03T02:13:52;10.18;;;4.30;;
70132;SDS011;57495;49.922;7.966;2023-03-03T02:15:55;11.55;;;4.20;;
70132;SDS011;57495;49.922;7.966;2023-03-03T02:17:58;10.57;;;4.40;;
70132;SDS011;57495;49.922;7.966;2023-03-03T02:20:04;9.40;;;4.50;;
70132;SDS011;57495;49.922;7.966;2023-03-03T02:22:12;10.30;;;4.47;;
70132;SDS011;57495;49.922;7.966;2023-03-03T02:24:20;9.13;;;4.15;;
70132;SDS011;57495;49.922;7.966;2023-03-03T02:26:28;10.85;;;4.50;;
70132;SDS011;57495;49.922;7.966;2023-03-03T02:28:31;10.20;;;4.55;;
70132;SDS011;57495;49.922;7.966;2023-03-03T02:30:36;13.73;;;4.93;;
70132;SDS011;57495;49.922;7.966;2023-03-03T02:32:38;12.27;;;5.32;;
70132;SDS011;57495;49.922;7.966;2023-03-03T02:34:44;10.25;;;4.72;;
70132;SDS011;57495;49.922;7.966;2023-03-03T02:36:47;12.02;;;5.55;;
70132;SDS011;57495;49.922;7.966;2023-03-03T02:38:50;12.90;;;6.25;;
70132;SDS011;57495;49.922;7.966;2023-03-03T02:40:59;12.90;;;5.07;;
70132;SDS011;57495;49.922;7.966;2023-03-03T02:43:09;13.32;;;6.15;;
70132;SDS011;57495;49.922;7.966;2023-03-03T02:45:12;13.73;;;5.82;;
70132;SDS011;57495;49.922;7.966;2023-03-03T02:47:13;12.32;;;6.20;;
70132;SDS011;57495;49.922;7.966;2023-03-03T02:49:15;13.75;;;6.13;;
70132;SDS011;57495;49.922;7.966;2023-03-03T02:51:18;12.07;;;5.97;;
70132;SDS011;57495;49.922;7.966;2023-03-03T02:53:19;14.25;;;6.65;;
70132;SDS011;57495;49.922;7.966;2023-03-03T02:55:21;11.48;;;6.03;;
70132;SDS011;57495;49.922;7.966;2023-03-03T02:57:22;15.38;;;6.78;;
70132;SDS011;57495;49.922;7.966;2023-03-03T02:59:25;12.45;;;6.13;;
70132;SDS011;57495;49.922;7.966;2023-03-03T03:01:27;16.33;;;6.37;;
70132;SDS011;57495;49.922;7.966;2023-03-03T03:03:31;10.70;;;5.30;;
70132;SDS011;57495;49.922;7.966;2023-03-03T03:05:32;13.27;;;5.88;;
70132;SDS011;57495;49.922;7.966;2023-03-03T03:07:33;15.77;;;6.38;;
70132;SDS011;57495;49.922;7.966;2023-03-03T03:09:35;11.77;;;5.88;;
70132;SDS011;57495;49.922;7.966;2023-03-03T03:11:37;11.97;;;5.73;;
70132;SDS011;57495;49.922;7.966;2023-03-03T03:13:39;12.50;;;5.75;;
70132;SDS011;57495;49.922;7.966;2023-03-03T03:15:42;12.27;;;5.90;;
70132;SDS011;57495;49.922;7.966;2023-03-03T03:17:45;12.93;;;5.88;;
70132;SDS011;57495;49.922;7.966;2023-03-03T03:19:47;11.20;;;5.53;;
70132;SDS011;57495;49.922;7.966;2023-03-03T03:21:48;14.57;;;5.60;;
70132;SDS011;57495;49.922;7.966;2023-03-03T03:23:49;12.20;;;6.03;;
70132;SDS011;57495;49.922;7.966;2023-03-03T03:25:51;14.52;;;5.50;;
70132;SDS011;57495;49.922;7.966;2023-03-03T03:27:52;10.98;;;5.50;;
70132;SDS011;57495;49.922;7.966;2023-03-03T03:29:54;13.07;;;5.88;;
70132;SDS011;57495;49.922;7.966;2023-03-03T03:31:56;11.57;;;5.30;;
70132;SDS011;57495;49.922;7.966;2023-03-03T03:33:58;14.13;;;6.30;;
70132;SDS011;57495;49.922;7.966;2023-03-03T03:36:00;12.35;;;5.65;;
70132;SDS011;57495;49.922;7.966;2023-03-03T03:38:02;13.43;;;6.35;;
70132;SDS011;57495;49.922;7.966;2023-03-03T03:40:04;15.18;;;5.60;;
70132;SDS011;57495;49.922;7.966;2023-03-03T03:42:06;12.50;;;5.90;;
70132;SDS011;57495;49.922;7.966;2023-03-03T03:44:08;11.70;;;5.47;;
70132;SDS011;57495;49.922;7.966;2023-03-03T03:46:09;11.77;;;5.75;;
70132;SDS011;57495;49.922;7.966;2023-03-03T03:48:12;14.15;;;6.22;;
70132;SDS011;57495;49.922;7.966;2023-03-03T03:50:14;17.02;;;5.90;;
70132;SDS011;57495;49.922;7.966;2023-03-03T03:52:16;12.53;;;5.90;;
70132;SDS011;57495;49.922;7.966;2023-03-03T03:54:17;12.98;;;5.50;;
70132;SDS011;57495;49.922;7.966;2023-03-03T03:56:19;14.43;;;7.18;;
70132;SDS011;57495;49.922;7.966;2023-03-03T03:58:20;12.13;;;5.90;;
70132;SDS011;57495;49.922;7.966;2023-03-03T04:00:22;13.95;;;6.95;;
70132;SDS011;57495;49.922;7.966;2023-03-03T04:02:24;15.17;;;6.50;;
70132;SDS011;57495;49.922;7.966;2023-03-03T04:04:26;13.65;;;6.43;;
70132;SDS011;57495;49.922;7.966;2023-03-03T04:06:28;13.90;;;5.90;;
70132;SDS011;57495;49.922;7.966;2023-03-03T04:08:29;15.45;;;6.40;;
70132;SDS011;57495;49.922;7.966;2023-03-03T04:10:31;13.27;;;6.38;;
70132;SDS011;57495;49.922;7.966;2023-03-03T04:12:32;14.10;;;6.50;;
70132;SDS011;57495;49.922;7.966;2023-03-03T04:14:37;13.32;;;6.25;;
70132;SDS011;57495;49.922;7.966;2023-03-03T04:16:39;18.05;;;7.13;;
70132;SDS011;57495;49.922;7.966;2023-03-03T04:18:40;13.23;;;6.60;;
70132;SDS011;57495;49.922;7.966;2023-03-03T04:20:43;15.07;;;6.63;;
70132;SDS011;57495;49.922;7.966;2023-03-03T04:22:45;14.77;;;6.83;;
70132;SDS011;57495;49.922;7.966;2023-03-03T04:24:47;13.98;;;6.68;;
70132;SDS011;57495;49.922;7.966;2023-03-03T04:26:48;14.00;;;6.57;;
70132;SDS011;57495;49.922;7.966;2023-03-03T04:28:50;13.32;;;6.85;;
70132;SDS011;57495;49.922;7.966;2023-03-03T04:30:51;14.75;;;6.47;;
70132;SDS011;57495;49.922;7.966;2023-03-03T04:32:52;13.67;;;6.27;;
70132;SDS011;57495;49.922;7.966;2023-03-03T04:34:54;17.13;;;6.90;;
70132;SDS011;57495;49.922;7.966;2023-03-03T04:36:57;14.52;;;6.82;;
70132;SDS011;57495;49.922;7.966;2023-03-03T04:38:58;12.75;;;6.45;;
70132;SDS011;57495;49.922;7.966;2023-03-03T04:41:00;15.90;;;6.68;;
70132;SDS011;57495;49.922;7.966;2023-03-03T04:43:01;15.00;;;6.97;;
70132;SDS011;57495;49.922;7.966;2023-03-03T04:45:03;15.20;;;6.90;;
70132;SDS011;57495;49.922;7.966;2023-03-03T04:47:06;15.25;;;7.05;;
70132;SDS011;57495;49.922;7.966;2023-03-03T04:49:07;14.23;;;6.78;;
70132;SDS011;57495;49.922;7.966;2023-03-03T04:51:09;14.77;;;7.53;;
70132;SDS011;57495;49.922;7.966;2023-03-03T04:53:12;15.33;;;6.87;;
70132;SDS011;57495;49.922;7.966;2023-03-03T04:55:13;15.80;;;6.90;;
70132;SDS011;57495;49.922;7.966;2023-03-03T04:57:15;16.33;;;7.70;;
70132;SDS011;57495;49.922;7.966;2023-03-03T04:59:17;15.93;;;7.60;;
70132;SDS011;57495;49.922;7.966;2023-03-03T05:01:18;14.98;;;7.53;;
70132;SDS011;57495;49.922;7.966;2023-03-03T05:03:20;19.17;;;7.80;;
70132;SDS011;57495;49.922;7.966;2023-03-03T05:05:22;13.90;;;7.25;;
70132;SDS011;57495;49.922;7.966;2023-03-03T05:07:24;16.52;;;7.20;;
70132;SDS011;57495;49.922;7.966;2023-03-03T05:09:26;14.30;;;7.60;;
70132;SDS011;57495;49.922;7.966;2023-03-03T05:11:28;16.27;;;7.75;;
70132;SDS011;57495;49.922;7.966;2023-03-03T05:13:31;15.77;;;7.83;;
70132;SDS011;57495;49.922;7.966;2023-03-03T05:15:32;17.95;;;7.90;;
70132;SDS011;57495;49.922;7.966;2023-03-03T05:17:34;16.70;;;8.02;;
70132;SDS011;57495;49.922;7.966;2023-03-03T05:19:35;14.88;;;7.30;;
70132;SDS011;57495;49.922;7.966;2023-03-03T05:21:37;14.10;;;7.18;;
70132;SDS011;57495;49.922;7.966;2023-03-03T05:23:41;19.33;;;8.60;;
70132;SDS011;57495;49.922;7.966;2023-03-03T05:25:44;16.08;;;8.10;;
70132;SDS011;57495;49.922;7.966;2023-03-03T05:27:47;15.68;;;7.80;;
70132;SDS011;57495;49.922;7.966;2023-03-03T05:29:48;18.05;;;8.13;;
70132;SDS011;57495;49.922;7.966;2023-03-03T05:31:50;17.65;;;7.78;;
70132;SDS011;57495;49.922;7.966;2023-03-03T05:33:51;16.57;;;6.90;;
70132;SDS011;57495;49.922;7.966;2023-03-03T05:35:53;16.77;;;8.07;;
70132;SDS011;57495;49.922;7.966;2023-03-03T05:37:56;15.85;;;7.28;;
70132;SDS011;57495;49.922;7.966;2023-03-03T05:39:58;18.30;;;8.15;;
70132;SDS011;57495;49.922;7.966;2023-03-03T05:42:00;16.85;;;8.48;;
70132;SDS011;57495;49.922;7.966;2023-03-03T05:44:03;15.60;;;8.13;;
70132;SDS011;57495;49.922;7.966;2023-03-03T05:46:04;17.88;;;8.65;;
70132;SDS011;57495;49.922;7.966;2023-03-03T05:48:06;20.55;;;8.98;;
70132;SDS011;57495;49.922;7.966;2023-03-03T05:50:09;19.42;;;9.55;;
70132;SDS011;57495;49.922;7.966;2023-03-03T05:52:11;20.95;;;9.10;;
70132;SDS011;57495;49.922;7.966;2023-03-03T05:54:13;17.87;;;8.90;;
70132;SDS011;57495;49.922;7.966;2023-03-03T05:56:14;17.63;;;8.82;;
70132;SDS011;57495;49.922;7.966;2023-03-03T05:58:17;17.45;;;8.45;;
70132;SDS011;57495;49.922;7.966;2023-03-03T06:00:19;17.52;;;8.38;;
70132;SDS011;57495;49.922;7.966;2023-03-03T06:02:21;17.38;;;9.35;;
70132;SDS011;57495;49.922;7.966;2023-03-03T06:04:22;21.03;;;10.13;;
70132;SDS011;57495;49.922;7.966;2023-03-03T06:06:24;21.45;;;9.38;;
70132;SDS011;57495;49.922;7.966;2023-03-03T06:08:27;20.70;;;9.65;;
70132;SDS011;57495;49.922;7.966;2023-03-03T06:10:29;18.95;;;9.68;;
70132;SDS011;57495;49.922;7.966;2023-03-03T06:12:31;23.40;;;10.73;;
70132;SDS011;57495;49.922;7.966;2023-03-03T06:14:33;21.20;;;10.20;;
70132;SDS011;57495;49.922;7.966;2023-03-03T06:16:35;23.17;;;10.38;;
70132;SDS011;57495;49.922;7.966;2023-03-03T06:18:36;19.10;;;9.48;;
70132;SDS011;57495;49.922;7.966;2023-03-03T06:20:38;20.23;;;9.27;;
70132;SDS011;57495;49.922;7.966;2023-03-03T06:22:39;19.23;;;9.38;;
70132;SDS011;57495;49.922;7.966;2023-03-03T06:24:41;20.00;;;10.13;;
70132;SDS011;57495;49.922;7.966;2023-03-03T06:26:42;18.95;;;8.98;;
70132;SDS011;57495;49.922;7.966;2023-03-03T06:28:44;17.90;;;9.38;;
70132;SDS011;57495;49.922;7.966;2023-03-03T06:30:47;18.27;;;9.98;;
70132;SDS011;57495;49.922;7.966;2023-03-03T06:32:48;22.65;;;10.13;;
70132;SDS011;57495;49.922;7.966;2023-03-03T06:34:49;19.93;;;9.97;;
70132;SDS011;57495;49.922;7.966;2023-03-03T06:36:51;21.23;;;10.15;;
70132;SDS011;57495;49.922;7.966;2023-03-03T06:38:52;22.77;;;10.05;;
70132;SDS011;57495;49.922;7.966;2023-03-03T06:40:54;26.98;;;10.10;;
70132;SDS011;57495;49.922;7.966;2023-03-03T06:42:55;28.10;;;9.80;;
70132;SDS011;57495;49.922;7.966;2023-03-03T06:44:56;20.60;;;9.63;;
70132;SDS011;57495;49.922;7.966;2023-03-03T06:47:00;19.02;;;9.15;;
70132;SDS011;57495;49.922;7.966;2023-03-03T06:49:01;19.60;;;9.77;;
70132;SDS011;57495;49.922;7.966;2023-03-03T06:51:08;21.95;;;9.57;;
70132;SDS011;57495;49.922;7.966;2023-03-03T06:53:20;24.33;;;11.07;;
70132;SDS011;57495;49.922;7.966;2023-03-03T06:55:22;23.03;;;9.90;;
70132;SDS011;57495;49.922;7.966;2023-03-03T06:57:25;22.52;;;9.77;;
70132;SDS011;57495;49.922;7.966;2023-03-03T06:59:27;24.58;;;10.50;;
70132;SDS011;57495;49.922;7.966;2023-03-03T07:01:29;21.30;;;10.60;;
70132;SDS011;57495;49.922;7.966;2023-03-03T07:03:36;24.23;;;9.95;;
70132;SDS011;57495;49.922;7.966;2023-03-03T07:05:38;20.10;;;8.93;;
70132;SDS011;57495;49.922;7.966;2023-03-03T07:07:39;20.80;;;9.70;;
70132;SDS011;57495;49.922;7.966;2023-03-03T07:09:41;20.67;;;10.43;;
70132;SDS011;57495;49.922;7.966;2023-03-03T07:11:44;21.80;;;11.20;;
70132;SDS011;57495;49.922;7.966;2023-03-03T07:13:46;24.55;;;11.60;;
70132;SDS011;57495;49.922;7.966;2023-03-03T07:15:50;27.90;;;10.87;;
70132;SDS011;57495;49.922;7.966;2023-03-03T07:17:54;22.38;;;11.40;;
70132;SDS011;57495;49.922;7.966;2023-03-03T07:20:00;22.85;;;11.27;;
70132;SDS011;57495;49.922;7.966;2023-03-03T07:24:21;22.23;;;12.07;;
70132;SDS011;57495;49.922;7.966;2023-03-03T07:26:27;23.33;;;11.50;;
70132;SDS011;57495;49.922;7.966;2023-03-03T07:28:31;25.67;;;12.60;;
70132;SDS011;57495;49.922;7.966;2023-03-03T07:30:33;24.73;;;11.52;;
70132;SDS011;57495;49.922;7.966;2023-03-03T07:32:36;23.60;;;12.57;;
70132;SDS011;57495;49.922;7.966;2023-03-03T07:34:42;29.42;;;13.68;;
70132;SDS011;57495;49.922;7.966;2023-03-03T07:36:47;28.00;;;14.77;;
70132;SDS011;57495;49.922;7.966;2023-03-03T07:38:49;27.92;;;14.80;;
70132;SDS011;57495;49.922;7.966;2023-03-03T07:40:54;23.70;;;13.40;;
70132;SDS011;57495;49.922;7.966;2023-03-03T07:42:58;24.30;;;11.48;;
70132;SDS011;57495;49.922;7.966;2023-03-03T07:45:00;23.10;;;12.27;;
70132;SDS011;57495;49.922;7.966;2023-03-03T07:47:11;25.30;;;12.53;;
70132;SDS011;57495;49.922;7.966;2023-03-03T07:49:22;22.17;;;11.45;;
70132;SDS011;57495;49.922;7.966;2023-03-03T07:51:25;23.30;;;11.80;;
70132;SDS011;57495;49.922;7.966;2023-03-03T07:53:30;21.15;;;10.70;;
70132;SDS011;57495;49.922;7.966;2023-03-03T07:55:36;22.60;;;11.45;;
70132;SDS011;57495;49.922;7.966;2023-03-03T07:57:40;22.57;;;11.40;;
70132;SDS011;57495;49.922;7.966;2023-03-03T07:59:44;21.63;;;11.93;;
70132;SDS011;57495;49.922;7.966;2023-03-03T08:01:49;19.17;;;9.95;;
70132;SDS011;57495;49.922;7.966;2023-03-03T08:03:52;22.02;;;9.63;;
70132;SDS011;57495;49.922;7.966;2023-03-03T08:05:53;19.85;;;10.05;;
70132;SDS011;57495;49.922;7.966;2023-03-03T08:07:57;20.00;;;9.30;;
70132;SDS011;57495;49.922;7.966;2023-03-03T08:10:26;18.17;;;9.07;;
70132;SDS011;57495;49.922;7.966;2023-03-03T08:12:36;19.58;;;9.57;;
70132;SDS011;57495;49.922;7.966;2023-03-03T08:14:40;23.38;;;9.68;;
70132;SDS011;57495;49.922;7.966;2023-03-03T08:16:42;21.10;;;10.52;;
70132;SDS011;57495;49.922;7.966;2023-03-03T08:18:44;26.33;;;10.90;;
70132;SDS011;57495;49.922;7.966;2023-03-03T08:20:47;21.85;;;10.95;;
70132;SDS011;57495;49.922;7.966;2023-03-03T08:22:50;20.73;;;11.13;;
70132;SDS011;57495;49.922;7.966;2023-03-03T08:24:52;23.02;;;12.02;;
70132;SDS011;57495;49.922;7.966;2023-03-03T08:26:54;24.85;;;12.60;;
70132;SDS011;57495;49.922;7.966;2023-03-03T08:28:56;24.37;;;11.57;;
70132;SDS011;57495;49.922;7.966;2023-03-03T08:30:57;24.58;;;11.55;;
70132;SDS011;57495;49.922;7.966;2023-03-03T08:32:59;28.05;;;14.10;;
70132;SDS011;57495;49.922;7.966;2023-03-03T08:35:01;28.80;;;15.65;;
70132;SDS011;57495;49.922;7.966;2023-03-03T08:37:02;28.95;;;15.18;;
70132;SDS011;57495;49.922;7.966;2023-03-03T08:39:04;31.03;;;15.57;;
70132;SDS011;57495;49.922;7.966;2023-03-03T08:41:06;31.83;;;15.60;;
70132;SDS011;57495;49.922;7.966;2023-03-03T08:43:09;31.38;;;16.38;;
70132;SDS011;57495;49.922;7.966;2023-03-03T08:45:13;30.83;;;15.88;;
70132;SDS011;57495;49.922;7.966;2023-03-03T08:47:15;33.60;;;15.75;;
70132;SDS011;57495;49.922;7.966;2023-03-03T08:49:16;33.63;;;17.30;;
70132;SDS011;57495;49.922;7.966;2023-03-03T08:51:18;34.72;;;18.33;;
70132;SDS011;57495;49.922;7.966;2023-03-03T08:53:20;31.38;;;16.25;;
70132;SDS011;57495;49.922;7.966;2023-03-03T08:55:22;31.05;;;16.10;;
70132;SDS011;57495;49.922;7.966;2023-03-03T08:57:24;29.48;;;15.88;;
70132;SDS011;57495;49.922;7.966;2023-03-03T08:59:26;29.63;;;15.57;;
70132;SDS011;57495;49.922;7.966;2023-03-03T09:01:28;31.85;;;16.10;;
70132;SDS011;57495;49.922;7.966;2023-03-03T09:03:30;34.65;;;16.45;;
70132;SDS011;57495;49.922;7.966;2023-03-03T09:05:31;31.38;;;14.93;;
70132;SDS011;57495;49.922;7.966;2023-03-03T09:07:33;30.65;;;15.80;;
70132;SDS011;57495;49.922;7.966;2023-03-03T09:09:35;27.20;;;14.63;;
70132;SDS011;57495;49.922;7.966;2023-03-03T09:11:37;31.67;;;15.50;;
70132;SDS011;57495;49.922;7.966;2023-03-03T09:13:39;28.70;;;14.35;;
70132;SDS011;57495;49.922;7.966;2023-03-03T09:15:42;28.15;;;15.45;;
70132;SDS011;57495;49.922;7.966;2023-03-03T09:17:43;28.33;;;14.75;;
70132;SDS011;57495;49.922;7.966;2023-03-03T09:19:45;28.63;;;15.17;;
70132;SDS011;57495;49.922;7.966;2023-03-03T09:21:46;29.75;;;15.55;;
70132;SDS011;57495;49.922;7.966;2023-03-03T09:23:49;29.25;;;15.57;;
70132;SDS011;57495;49.922;7.966;2023-03-03T09:25:54;32.20;;;16.23;;
70132;SDS011;57495;49.922;7.966;2023-03-03T09:27:57;29.63;;;15.85;;
70132;SDS011;57495;49.922;7.966;2023-03-03T09:30:00;27.10;;;14.57;;
70132;SDS011;57495;49.922;7.966;2023-03-03T09:32:07;29.77;;;15.93;;
70132;SDS011;57495;49.922;7.966;2023-03-03T09:34:24;29.00;;;15.50;;
70132;SDS011;57495;49.922;7.966;2023-03-03T09:36:34;31.23;;;16.00;;
70132;SDS011;57495;49.922;7.966;2023-03-03T09:38:39;30.60;;;16.20;;
70132;SDS011;57495;49.922;7.966;2023-03-03T09:40:48;28.10;;;14.63;;
70132;SDS011;57495;49.922;7.966;2023-03-03T09:42:59;30.85;;;15.43;;
70132;SDS011;57495;49.922;7.966;2023-03-03T09:45:23;27.00;;;15.10;;
70132;SDS011;57495;49.922;7.966;2023-03-03T09:47:40;27.38;;;14.80;;
70132;SDS011;57495;49.922;7.966;2023-03-03T09:49:52;29.08;;;14.68;;
70132;SDS011;57495;49.922;7.966;2023-03-03T09:52:14;27.30;;;15.27;;
70132;SDS011;57495;49.922;7.966;2023-03-03T09:54:35;30.52;;;16.50;;
70132;SDS011;57495;49.922;7.966;2023-03-03T09:56:49;28.70;;;15.43;;
70132;SDS011;57495;49.922;7.966;2023-03-03T09:58:59;27.77;;;15.23;;
70132;SDS011;57495;49.922;7.966;2023-03-03T10:03:51;29.03;;;14.60;;
70132;SDS011;57495;49.922;7.966;2023-03-03T10:06:02;27.98;;;14.40;;
70132;SDS011;57495;49.922;7.966;2023-03-03T10:08:16;25.77;;;15.50;;
70132;SDS011;57495;49.922;7.966;2023-03-03T10:10:52;30.40;;;15.23;;
70132;SDS011;57495;49.922;7.966;2023-03-03T10:13:05;26.77;;;13.73;;
70132;SDS011;57495;49.922;7.966;2023-03-03T10:15:18;27.37;;;15.33;;
70132;SDS011;57495;49.922;7.966;2023-03-03T10:17:31;26.27;;;14.13;;
70132;SDS011;57495;49.922;7.966;2023-03-03T10:19:44;26.27;;;14.27;;
70132;SDS011;57495;49.922;7.966;2023-03-03T10:21:56;27.58;;;15.13;;
70132;SDS011;57495;49.922;7.966;2023-03-03T10:24:04;28.90;;;15.73;;
70132;SDS011;57495;49.922;7.966;2023-03-03T10:26:20;26.80;;;14.90;;
70132;SDS011;57495;49.922;7.966;2023-03-03T10:28:42;29.10;;;15.52;;
70132;SDS011;57495;49.922;7.966;2023-03-03T10:31:01;28.98;;;15.27;;
70132;SDS011;57495;49.922;7.966;2023-03-03T10:33:13;15.85;;;6.85;;
70132;SDS011;57495;49.922;7.966;2023-03-03T10:35:26;21.58;;;11.57;;
70132;SDS011;57495;49.922;7.966;2023-03-03T10:37:38;24.93;;;11.73;;
70132;SDS011;57495;49.922;7.966;2023-03-03T10:39:53;24.77;;;12.00;;
70132;SDS011;57495;49.922;7.966;2023-03-03T10:42:08;23.35;;;11.98;;
70132;SDS011;57495;49.922;7.966;2023-03-03T10:44:23;24.58;;;12.75;;
70132;SDS011;57495;49.922;7.966;2023-03-03T10:46:37;24.23;;;11.48;;
70132;SDS011;57495;49.922;7.966;2023-03-03T10:48:55;21.17;;;11.83;;
70132;SDS011;57495;49.922;7.966;2023-03-03T10:51:06;24.38;;;11.88;;
70132;SDS011;57495;49.922;7.966;2023-03-03T10:53:20;22.98;;;12.15;;
70132;SDS011;57495;49.922;7.966;2023-03-03T10:55:30;27.83;;;13.40;;
70132;SDS011;57495;49.922;7.966;2023-03-03T10:57:45;25.98;;;13.85;;
70132;SDS011;57495;49.922;7.966;2023-03-03T11:02:20;79.65;;;37.28;;
70132;SDS011;57495;49.922;7.966;2023-03-03T11:04:39;86.10;;;42.97;;
70132;SDS011;57495;49.922;7.966;2023-03-03T11:06:53;47.17;;;25.25;;
70132;SDS011;57495;49.922;7.966;2023-03-03T11:09:03;46.92;;;26.30;;
70132;SDS011;57495;49.922;7.966;2023-03-03T11:11:13;51.20;;;28.87;;
70132;SDS011;57495;49.922;7.966;2023-03-03T11:13:23;49.40;;;25.00;;
70132;SDS011;57495;49.922;7.966;2023-03-03T11:15:39;26.92;;;15.93;;
70132;SDS011;57495;49.922;7.966;2023-03-03T11:17:50;26.38;;;15.60;;
70132;SDS011;57495;49.922;7.966;2023-03-03T11:20:02;27.52;;;15.15;;
70132;SDS011;57495;49.922;7.966;2023-03-03T11:22:14;27.17;;;14.83;;
70132;SDS011;57495;49.922;7.966;2023-03-03T11:24:29;27.65;;;15.90;;
70132;SDS011;57495;49.922;7.966;2023-03-03T11:26:49;28.75;;;16.75;;
70132;SDS011;57495;49.922;7.966;2023-03-03T11:29:18;24.98;;;15.00;;
70132;SDS011;57495;49.922;7.966;2023-03-03T11:31:31;26.15;;;15.20;;
70132;SDS011;57495;49.922;7.966;2023-03-03T11:33:39;28.30;;;16.10;;
70132;SDS011;57495;49.922;7.966;2023-03-03T11:35:47;28.25;;;15.68;;
70132;SDS011;57495;49.922;7.966;2023-03-03T11:38:02;26.80;;;16.10;;
70132;SDS011;57495;49.922;7.966;2023-03-03T11:40:14;27.25;;;14.88;;
70132;SDS011;57495;49.922;7.966;2023-03-03T11:42:20;27.33;;;15.07;;
70132;SDS011;57495;49.922;7.966;2023-03-03T11:44:27;30.17;;;16.20;;
70132;SDS011;57495;49.922;7.966;2023-03-03T11:46:33;27.55;;;15.98;;
70132;SDS011;57495;49.922;7.966;2023-03-03T11:48:42;27.83;;;15.73;;
70132;SDS011;57495;49.922;7.966;2023-03-03T11:50:52;28.67;;;15.05;;
70132;SDS011;57495;49.922;7.966;2023-03-03T11:53:01;27.38;;;15.63;;
70132;SDS011;57495;49.922;7.966;2023-03-03T11:55:17;26.97;;;15.40;;
70132;SDS011;57495;49.922;7.966;2023-03-03T11:57:26;27.00;;;15.27;;
70132;SDS011;57495;49.922;7.966;2023-03-03T11:59:49;22.13;;;12.43;;
70132;SDS011;57495;49.922;7.966;2023-03-03T12:01:59;28.15;;;14.48;;
70132;SDS011;57495;49.922;7.966;2023-03-03T12:04:08;24.48;;;15.02;;
70132;SDS011;57495;49.922;7.966;2023-03-03T12:06:16;24.90;;;14.17;;
70132;SDS011;57495;49.922;7.966;2023-03-03T12:08:29;26.23;;;14.70;;
70132;SDS011;57495;49.922;7.966;2023-03-03T12:10:38;25.77;;;14.18;;
70132;SDS011;57495;49.922;7.966;2023-03-03T12:12:47;21.60;;;13.52;;
70132;SDS011;57495;49.922;7.966;2023-03-03T12:15:01;23.42;;;13.93;;
70132;SDS011;57495;49.922;7.966;2023-03-03T12:17:11;24.50;;;14.33;;
70132;SDS011;57495;49.922;7.966;2023-03-03T12:19:29;28.02;;;14.75;;
70132;SDS011;57495;49.922;7.966;2023-03-03T12:21:38;24.05;;;14.45;;
70132;SDS011;57495;49.922;7.966;2023-03-03T12:23:54;29.45;;;16.77;;
70132;SDS011;57495;49.922;7.966;2023-03-03T12:26:09;24.70;;;14.55;;